Time;durP1;ratioP1;P1;durP2;ratioP2;P2;SDS_P1;SDS_P2;PMS_P1;PMS_P2;Temp;Humidity;BMP_temperature;BMP_pressure;BME280_temperature;BME280_humidity;BME280_pressure;Samples;Min_cycle;Max_cycle;Signal;HPM_P1;HPM_P2
2021/04/02 00:01:14;;;;;;;50.17;30.53;;;;;;;10.38;64.93;98584.09;2089460;85;21285;-78
2021/04/02 00:04:15;;;;;;;56.80;34.67;;;;;;;10.34;64.97;98578.41;2089978;85;21441;-80
2021/04/02 00:07:16;;;;;;;67.83;39.50;;;;;;;10.30;65.60;98583.14;2090377;85;21166;-78
2021/04/02 00:10:17;;;;;;;56.00;33.90;;;;;;;10.26;66.30;98580.07;2090004;85;21160;-79
2021/04/02 00:13:21;;;;;;;55.60;33.40;;;;;;;10.19;66.66;98585.20;2090383;85;21107;-79
2021/04/02 00:16:22;;;;;;;52.35;34.55;;;;;;;10.11;66.99;98581.64;2090492;85;21158;-79
2021/04/02 00:19:24;;;;;;;58.07;35.80;;;;;;;10.02;67.48;98581.56;2090688;85;21187;-78
2021/04/02 00:22:27;;;;;;;52.17;35.37;;;;;;;9.95;67.82;98568.44;2090358;85;21261;-78
2021/04/02 00:25:28;;;;;;;55.53;37.80;;;;;;;9.89;67.61;98569.26;2090850;83;21157;-79
2021/04/02 00:28:30;;;;;;;64.53;36.37;;;;;;;9.88;68.18;98568.81;2090589;85;21416;-79
2021/04/02 00:31:31;;;;;;;60.97;37.33;;;;;;;9.85;68.52;98560.96;2090641;85;21162;-79
2021/04/02 00:34:32;;;;;;;58.60;36.17;;;;;;;9.81;68.59;98563.97;2090191;85;21272;-79
2021/04/02 00:37:33;;;;;;;63.87;37.77;;;;;;;9.79;68.59;98555.69;2090244;85;21174;-79
2021/04/02 00:40:34;;;;;;;59.90;36.63;;;;;;;9.80;69.26;98557.44;2090327;85;21143;-79
2021/04/02 00:43:35;;;;;;;56.77;34.90;;;;;;;9.79;68.95;98556.98;2090592;85;21174;-79
2021/04/02 00:46:36;;;;;;;52.87;36.50;;;;;;;9.81;69.12;98557.88;2090602;85;21457;-78
2021/04/02 00:49:37;;;;;;;55.97;38.53;;;;;;;9.80;69.35;98566.55;2090247;85;21158;-79
2021/04/02 00:52:39;;;;;;;52.90;35.27;;;;;;;9.78;69.63;98566.97;2090367;85;21162;-79
2021/04/02 00:55:40;;;;;;;55.13;38.13;;;;;;;9.74;69.84;98566.06;2090200;85;21198;-79
2021/04/02 00:58:41;;;;;;;59.83;37.27;;;;;;;9.70;70.55;98565.59;2090245;85;21154;-80
2021/04/02 01:01:42;;;;;;;55.97;37.77;;;;;;;9.64;70.63;98565.52;2090436;85;21157;-78
2021/04/02 01:04:43;;;;;;;55.47;37.47;;;;;;;9.58;71.16;98567.63;2090244;85;21166;-80
2021/04/02 01:07:44;;;;;;;61.70;37.83;;;;;;;9.56;71.65;98571.95;2090434;85;21253;-80
2021/04/02 01:10:45;;;;;;;61.30;38.33;;;;;;;9.52;72.29;98567.53;2090427;85;21170;-80
2021/04/02 01:13:46;;;;;;;62.00;38.67;;;;;;;9.48;72.33;98572.69;2090771;85;21136;-80
2021/04/02 01:16:47;;;;;;;57.27;36.93;;;;;;;9.40;73.49;98573.89;2090504;85;21129;-80
2021/04/02 01:19:48;;;;;;;59.83;38.03;;;;;;;9.30;73.50;98578.97;2090635;85;21484;-81
2021/04/02 01:22:49;;;;;;;59.40;38.67;;;;;;;9.22;73.70;98577.58;2090837;85;21123;-80
2021/04/02 01:25:51;;;;;;;55.27;38.77;;;;;;;9.15;75.27;98579.22;2098593;84;21208;-80
2021/04/02 01:28:52;;;;;;;44.93;28.70;;;;;;;9.06;75.50;98582.13;2114551;84;21462;-79
2021/04/02 01:31:53;;;;;;;34.03;23.37;;;;;;;8.88;77.00;98597.94;2114505;84;21177;-81
2021/04/02 01:34:54;;;;;;;33.93;20.93;;;;;;;8.56;76.86;98610.44;2114465;84;21272;-80
2021/04/02 01:37:55;;;;;;;27.40;17.83;;;;;;;8.03;77.73;98615.11;2114097;84;21177;-81
2021/04/02 01:40:56;;;;;;;27.67;17.37;;;;;;;8.03;77.73;98615.11;2114484;84;21391;-79
2021/04/02 01:43:58;;;;;;;23.23;14.20;;;;;;;7.60;78.47;98633.75;2114298;84;21303;-80
2021/04/02 01:46:59;;;;;;;18.80;12.40;;;;;;;7.39;79.47;98639.38;2114038;84;21299;-79
2021/04/02 01:50:00;;;;;;;19.17;12.70;;;;;;;7.39;79.47;98639.38;2113363;84;21154;-80
2021/04/02 01:53:01;;;;;;;15.67;11.33;;;;;;;7.26;78.86;98634.77;2113323;84;21137;-78
2021/04/02 01:56:02;;;;;;;21.17;13.33;;;;;;;7.13;79.56;98639.24;2113469;84;21165;-80
2021/04/02 01:59:03;;;;;;;15.27;10.27;;;;;;;6.98;79.75;98639.36;2113169;84;21156;-78
2021/04/02 02:02:04;;;;;;;13.50;9.57;;;;;;;6.87;79.49;98649.00;2113175;84;21471;-79
2021/04/02 02:05:05;;;;;;;14.00;10.93;;;;;;;6.75;79.40;98631.44;2114076;84;21169;-80
2021/04/02 02:08:12;;;;;;;13.10;9.87;;;;;;;6.67;80.52;98635.56;2114131;84;21267;-80
2021/04/02 02:11:13;;;;;;;14.07;11.33;;;;;;;6.60;79.55;98641.02;2113062;84;21138;-78
2021/04/02 02:14:14;;;;;;;12.13;9.30;;;;;;;6.53;79.64;98631.34;2112937;84;21106;-78
2021/04/02 02:17:16;;;;;;;12.43;10.57;;;;;;;6.50;79.57;98632.56;2113202;84;21271;-81
2021/04/02 02:20:17;;;;;;;12.47;11.17;;;;;;;6.51;79.57;98630.84;2113974;84;21299;-80
2021/04/02 02:23:18;;;;;;;14.67;12.27;;;;;;;6.51;79.90;98630.84;2114564;84;21280;-79
2021/04/02 02:26:19;;;;;;;12.70;11.50;;;;;;;6.49;79.69;98633.83;2104367;84;21154;-79
2021/04/02 02:29:20;;;;;;;11.47;10.30;;;;;;;6.45;79.33;98631.58;2090447;85;21123;-81
2021/04/02 02:32:21;;;;;;;11.57;10.37;;;;;;;6.42;79.37;98648.77;2090424;85;21123;-80
2021/04/02 02:35:24;;;;;;;10.07;9.00;;;;;;;6.31;79.88;98642.90;2090459;85;21269;-79
2021/04/02 02:38:25;;;;;;;9.07;8.27;;;;;;;6.25;80.16;98660.01;2090281;85;21182;-79
2021/04/02 02:41:26;;;;;;;8.60;7.80;;;;;;;6.20;79.68;98661.61;2090364;85;21169;-83
2021/04/02 02:44:27;;;;;;;9.57;8.77;;;;;;;6.12;79.38;98665.71;2090154;85;21138;-79
2021/04/02 02:47:28;;;;;;;9.43;8.33;;;;;;;5.95;79.09;98671.70;2089226;85;21491;-80
2021/04/02 02:50:29;;;;;;;7.20;6.60;;;;;;;5.95;79.09;98671.70;2089430;85;21135;-79
2021/04/02 02:53:30;;;;;;;9.27;8.47;;;;;;;5.82;78.94;98674.77;2089416;85;21272;-78
2021/04/02 02:56:31;;;;;;;9.00;8.20;;;;;;;5.69;78.53;98679.59;2089355;85;21170;-78
2021/04/02 02:59:32;;;;;;;9.33;8.50;;;;;;;5.59;78.28;98684.05;2089435;85;21169;-79
2021/04/02 03:02:33;;;;;;;10.50;9.60;;;;;;;5.51;78.01;98692.02;2090223;85;21162;-79
2021/04/02 03:05:34;;;;;;;10.90;7.87;;;;;;;5.39;78.11;98701.59;2089845;85;21281;-80
2021/04/02 03:08:35;;;;;;;9.77;8.60;;;;;;;5.26;77.91;98727.94;2089615;85;21166;-80
2021/04/02 03:11:36;;;;;;;9.87;8.97;;;;;;;5.15;78.11;98728.41;2089824;85;21115;-79
2021/04/02 03:14:37;;;;;;;8.83;8.03;;;;;;;5.03;77.87;98712.08;2089647;85;21143;-79
2021/04/02 03:17:38;;;;;;;8.97;8.27;;;;;;;4.94;77.75;98718.27;2089820;85;21161;-79
2021/04/02 03:20:40;;;;;;;10.20;8.77;;;;;;;4.82;77.71;98728.21;2090202;85;21162;-79
2021/04/02 03:23:41;;;;;;;9.37;8.47;;;;;;;4.72;78.08;98725.73;2089879;85;21154;-78
2021/04/02 03:26:42;;;;;;;8.40;7.70;;;;;;;4.67;78.24;98735.05;2099107;84;21169;-81
2021/04/02 03:29:43;;;;;;;9.20;8.40;;;;;;;4.58;78.22;98730.87;2112827;84;21189;-79
2021/04/02 03:32:44;;;;;;;10.00;9.10;;;;;;;4.51;78.25;98736.25;2112916;84;21157;-78
2021/04/02 03:35:45;;;;;;;10.87;9.97;;;;;;;4.43;78.13;98745.03;2113121;84;21165;-79
2021/04/02 03:38:46;;;;;;;11.33;10.37;;;;;;;4.41;78.38;98753.56;2113711;84;21291;-79
2021/04/02 03:41:47;;;;;;;13.50;12.27;;;;;;;4.35;77.92;98751.64;2113081;84;21169;-79
2021/04/02 03:44:48;;;;;;;14.37;13.03;;;;;;;4.29;78.13;98747.94;2113194;84;21166;-78
2021/04/02 03:47:49;;;;;;;15.37;13.97;;;;;;;4.24;78.38;98764.56;2113335;84;21157;-80
2021/04/02 03:50:50;;;;;;;14.47;13.07;;;;;;;4.22;78.65;98778.26;2113130;84;21288;-79
2021/04/02 03:53:51;;;;;;;14.73;13.10;;;;;;;4.19;78.21;98782.02;2113149;84;21286;-78
2021/04/02 03:56:52;;;;;;;14.70;13.10;;;;;;;4.10;78.33;98795.49;2112667;84;21149;-80
2021/04/02 03:59:53;;;;;;;16.60;14.80;;;;;;;4.07;79.06;98803.13;2112353;84;21651;-78
2021/04/02 04:02:54;;;;;;;18.60;16.80;;;;;;;4.07;78.59;98788.51;2111983;84;21292;-80
2021/04/02 04:05:55;;;;;;;22.00;16.57;;;;;;;4.13;78.90;98793.02;2111622;84;21279;-79
2021/04/02 04:08:56;;;;;;;17.07;15.40;;;;;;;4.14;78.83;98797.36;2111457;84;21145;-78
2021/04/02 04:11:57;;;;;;;16.40;14.70;;;;;;;4.12;78.64;98794.72;2111257;84;21267;-79
2021/04/02 04:14:59;;;;;;;15.73;14.13;;;;;;;4.10;78.33;98800.66;2111518;84;21174;-80
2021/04/02 04:18:00;;;;;;;16.47;14.73;;;;;;;4.09;78.71;98794.61;2111677;84;21276;-79
2021/04/02 04:21:01;;;;;;;15.40;14.00;;;;;;;4.09;78.68;98793.73;2111840;84;21137;-79
2021/04/02 04:24:02;;;;;;;15.37;13.93;;;;;;;4.11;78.17;98804.59;2112418;84;21307;-80
2021/04/02 04:27:03;;;;;;;14.67;13.17;;;;;;;4.15;78.12;98819.37;2097860;84;21494;-79
2021/04/02 04:30:04;;;;;;;13.67;12.40;;;;;;;4.16;77.48;98802.17;2079649;86;21277;-78
2021/04/02 04:33:05;;;;;;;14.47;13.07;;;;;;;4.16;77.32;98814.67;2080308;86;21266;-78
2021/04/02 04:36:06;;;;;;;14.33;12.93;;;;;;;4.15;77.01;98818.08;2080370;86;21842;-80
2021/04/02 04:39:07;;;;;;;13.80;12.47;;;;;;;4.16;77.20;98819.84;2080264;86;21158;-79
2021/04/02 04:42:09;;;;;;;13.97;12.57;;;;;;;4.18;77.09;98824.19;2080452;86;21167;-80
2021/04/02 04:45:10;;;;;;;17.23;15.53;;;;;;;4.21;77.11;98829.47;2080750;86;21119;-79
2021/04/02 04:48:11;;;;;;;13.03;11.67;;;;;;;4.22;77.05;98830.81;2080426;86;21154;-79
2021/04/02 04:51:12;;;;;;;24.53;14.83;;;;;;;4.21;76.31;98836.80;2079599;86;21265;-80
2021/04/02 04:54:13;;;;;;;15.20;12.13;;;;;;;4.20;76.34;98845.38;2080029;86;21154;-80
2021/04/02 04:57:14;;;;;;;13.03;11.83;;;;;;;4.21;76.05;98847.55;2078989;86;21285;-80
2021/04/02 05:00:15;;;;;;;13.20;11.83;;;;;;;4.20;75.85;98850.55;2079187;86;21150;-80
2021/04/02 05:03:16;;;;;;;14.53;12.77;;;;;;;4.19;75.32;98854.36;2079872;86;21581;-80
2021/04/02 05:06:17;;;;;;;13.57;12.20;;;;;;;4.16;76.45;98859.00;2080929;86;21265;-79
2021/04/02 05:09:18;;;;;;;16.07;10.70;;;;;;;5.48;72.84;98855.03;2079922;86;21278;-80
2021/04/02 05:12:19;;;;;;;18.20;11.17;;;;;;;6.14;77.26;98852.81;2080965;86;21269;-79
2021/04/02 05:15:21;;;;;;;12.10;10.90;;;;;;;8.73;72.83;98839.73;2080871;86;21170;-80
2021/04/02 05:18:22;;;;;;;12.13;9.77;;;;;;;9.30;66.19;98829.90;2081556;86;21182;-80
2021/04/02 05:21:23;;;;;;;13.63;12.23;;;;;;;10.56;67.48;98819.59;2081226;86;21146;-77
2021/04/02 05:24:24;;;;;;;13.47;12.00;;;;;;;12.63;64.08;98816.85;2079565;86;21285;-78
2021/04/02 05:27:26;;;;;;;13.10;11.83;;;;;;;11.14;57.61;98810.19;2083492;84;21186;-77
2021/04/02 05:30:27;;;;;;;26.80;20.23;;;;;;;9.52;58.87;98801.16;2088472;85;21563;-78
2021/04/02 05:33:28;;;;;;;11.53;10.33;;;;;;;8.42;59.84;98811.34;2088658;85;21154;-80
2021/04/02 05:36:29;;;;;;;17.47;10.03;;;;;;;7.50;61.41;98812.31;2089361;85;21155;-80
2021/04/02 05:39:30;;;;;;;18.57;9.90;;;;;;;7.00;66.50;98816.74;2089370;85;21332;-77
2021/04/02 05:42:31;;;;;;;11.23;10.10;;;;;;;8.17;62.87;98817.73;2089639;85;21431;-78
2021/04/02 05:45:33;;;;;;;10.17;9.00;;;;;;;7.43;62.08;98825.58;2090032;85;21123;-78
2021/04/02 05:48:35;;;;;;;9.60;8.70;;;;;;;6.13;64.37;98849.75;2089543;85;21161;-78
2021/04/02 05:51:36;;;;;;;10.23;9.10;;;;;;;6.13;64.37;98849.75;2089452;85;21157;-78
2021/04/02 05:54:37;;;;;;;10.13;9.23;;;;;;;5.72;65.90;98860.10;2088947;85;21269;-77
2021/04/02 05:57:38;;;;;;;15.23;8.87;;;;;;;5.38;67.00;98860.74;2089144;85;21480;-78
2021/04/02 06:00:39;;;;;;;8.70;7.80;;;;;;;5.19;67.20;98864.41;2089112;85;21154;-77
2021/04/02 06:03:40;;;;;;;8.07;7.37;;;;;;;5.05;67.45;98861.36;2088702;85;21141;-77
2021/04/02 06:06:41;;;;;;;9.57;7.53;;;;;;;5.02;67.23;98844.84;2088226;85;21110;-78
2021/04/02 06:09:42;;;;;;;5.67;5.13;;;;;;;5.09;66.86;98858.04;2089036;85;21276;-79
2021/04/02 06:12:44;;;;;;;10.57;4.43;;;;;;;5.63;71.50;98863.28;2089508;85;21502;-80
2021/04/02 06:15:45;;;;;;;7.20;3.80;;;;;;;7.45;64.43;98856.36;2087083;85;21150;-79
2021/04/02 06:18:46;;;;;;;9.40;3.40;;;;;;;8.88;66.31;98858.67;2087305;85;21297;-79
2021/04/02 06:21:48;;;;;;;8.50;3.40;;;;;;;11.38;58.13;98860.52;2088358;85;21169;-78
2021/04/02 06:24:49;;;;;;;4.93;3.33;;;;;;;12.80;56.22;98857.93;2090323;85;21122;-79
2021/04/02 06:27:50;;;;;;;5.03;2.87;;;;;;;14.40;55.54;98849.70;2100382;84;21161;-79
2021/04/02 06:30:51;;;;;;;3.85;2.80;;;;;;;15.82;51.47;98863.41;2112715;84;21285;-78
2021/04/02 06:33:52;;;;;;;2.15;1.90;;;;;;;16.59;43.56;98870.10;2114191;84;21280;-80
2021/04/02 06:36:54;;;;;;;2.83;2.45;;;;;;;14.46;41.77;98877.29;2114205;84;21168;-79
2021/04/02 06:39:55;;;;;;;4.17;2.75;;;;;;;12.42;45.08;98876.55;2114284;84;21161;-80
2021/04/02 06:42:56;;;;;;;2.55;2.35;;;;;;;12.45;45.01;98879.62;2113668;84;21167;-78
2021/04/02 06:46:00;;;;;;;3.90;2.80;;;;;;;11.05;44.89;98893.69;2114854;84;21201;-79
2021/04/02 06:49:01;;;;;;;3.15;2.17;;;;;;;10.95;49.12;98894.88;2112888;84;21308;-78
2021/04/02 06:52:02;;;;;;;3.70;3.40;;;;;;;10.84;46.13;98905.20;2113744;84;21200;-79
2021/04/02 06:55:03;;;;;;;2.97;2.73;;;;;;;9.37;50.54;98908.61;2114064;84;21197;-79
2021/04/02 06:58:04;;;;;;;3.20;2.90;;;;;;;8.27;52.60;98911.58;2112447;84;21493;-77
2021/04/02 07:01:05;;;;;;;3.33;3.00;;;;;;;7.57;54.65;98913.80;2111960;84;21181;-77
2021/04/02 07:04:06;;;;;;;3.73;3.40;;;;;;;7.11;56.29;98921.26;2112241;84;21459;-77
2021/04/02 07:07:07;;;;;;;3.53;3.23;;;;;;;6.80;57.32;98925.58;2112618;84;21444;-77
2021/04/02 07:10:08;;;;;;;5.43;3.03;;;;;;;6.80;57.32;98925.58;2113045;84;21197;-77
2021/04/02 07:13:10;;;;;;;6.80;3.30;;;;;;;6.64;56.46;98922.97;2113079;84;21161;-79
2021/04/02 07:16:11;;;;;;;3.47;3.17;;;;;;;6.60;57.51;98922.42;2113141;84;21162;-77
2021/04/02 07:19:12;;;;;;;22.90;4.30;;;;;;;6.49;56.86;98927.72;2113296;84;21149;-78
2021/04/02 07:22:16;;;;;;;4.93;4.20;;;;;;;6.40;57.37;98927.45;2113671;84;21227;-77
2021/04/02 07:25:17;;;;;;;5.97;4.53;;;;;;;6.40;57.37;98927.45;2112691;84;21149;-77
2021/04/02 07:28:18;;;;;;;12.57;8.40;;;;;;;6.29;56.98;98939.22;2098894;84;21757;-76
2021/04/02 07:31:20;;;;;;;5.00;4.50;;;;;;;6.08;57.54;98939.86;2089266;85;21261;-76
2021/04/02 07:34:21;;;;;;;5.43;4.27;;;;;;;5.71;58.19;98926.56;2089089;85;21577;-78
2021/04/02 07:37:22;;;;;;;5.27;4.00;;;;;;;5.51;57.86;98931.92;2089449;85;21152;-76
2021/04/02 07:40:23;;;;;;;5.47;3.97;;;;;;;5.46;58.35;98929.18;2088871;85;21309;-77
2021/04/02 07:43:24;;;;;;;5.40;4.00;;;;;;;5.63;58.42;98930.61;2088704;85;21281;-77
2021/04/02 07:46:26;;;;;;;4.20;3.43;;;;;;;6.05;57.76;98923.77;2089455;85;21158;-76
2021/04/02 07:49:27;;;;;;;4.30;3.90;;;;;;;6.48;57.91;98922.48;2088868;85;21304;-77
2021/04/02 07:52:28;;;;;;;10.93;4.20;;;;;;;7.26;55.97;98928.15;2088815;85;21273;-77
2021/04/02 07:55:29;;;;;;;4.10;3.40;;;;;;;7.50;55.41;98935.27;2088835;85;21151;-77
2021/04/02 07:58:30;;;;;;;6.70;3.60;;;;;;;7.50;55.41;98935.27;2088527;85;21146;-79
2021/04/02 08:01:31;;;;;;;4.67;3.87;;;;;;;8.22;57.53;98926.63;2089413;85;21141;-79
2021/04/02 08:04:32;;;;;;;3.40;3.10;;;;;;;9.79;57.28;98929.33;2088741;85;21559;-77
2021/04/02 08:07:33;;;;;;;5.97;5.00;;;;;;;12.27;55.31;98925.33;2088811;85;21542;-79
2021/04/02 08:10:35;;;;;;;4.50;3.80;;;;;;;12.82;44.38;98934.77;2088843;85;21452;-77
2021/04/02 08:13:36;;;;;;;10.70;5.30;;;;;;;11.24;47.22;98933.95;2088849;85;21281;-76
2021/04/02 08:16:37;;;;;;;4.40;4.00;;;;;;;10.02;49.18;98944.46;2088726;85;21158;-76
2021/04/02 08:19:38;;;;;;;5.50;4.97;;;;;;;9.42;51.02;98946.47;2089177;85;21272;-76
2021/04/02 08:22:42;;;;;;;5.62;4.80;;;;;;;9.62;50.16;98955.55;2089646;85;21424;-77
2021/04/02 08:25:43;;;;;;;4.77;4.10;;;;;;;9.85;48.72;98955.50;2089047;85;21146;-77
2021/04/02 08:28:44;;;;;;;4.13;3.73;;;;;;;9.70;49.10;98963.49;2103525;84;21161;-76
2021/04/02 08:31:45;;;;;;;4.63;3.80;;;;;;;8.92;49.49;98958.98;2112467;84;21157;-77
2021/04/02 08:34:46;;;;;;;4.77;3.77;;;;;;;8.69;50.01;98958.94;2112295;84;21404;-77
2021/04/02 08:37:47;;;;;;;5.20;4.10;;;;;;;8.31;50.91;98964.53;2112343;84;21153;-76
2021/04/02 08:40:48;;;;;;;4.30;3.90;;;;;;;8.00;52.80;98952.55;2110842;84;21144;-76
2021/04/02 09:14:36;;;;;;;3.80;3.50;;;;;;;9.23;50.48;98935.71;2261221;79;22835;-78
2021/04/02 09:17:37;;;;;;;4.30;3.90;;;;;;;8.51;49.12;98930.77;2227735;80;21156;-77
2021/04/02 09:20:39;;;;;;;12.67;4.20;;;;;;;8.28;51.04;98934.14;2228147;80;21113;-75
2021/04/02 09:23:40;;;;;;;4.40;4.00;;;;;;;8.18;51.18;98934.78;2228615;80;21193;-78
2021/04/02 09:26:42;;;;;;;4.43;4.03;;;;;;;8.22;51.79;98935.72;2228524;80;21106;-78
2021/04/02 09:29:43;;;;;;;3.60;3.30;;;;;;;8.27;50.89;98931.08;2227951;80;21260;-77
2021/04/02 09:32:44;;;;;;;4.07;3.67;;;;;;;8.18;49.92;98921.78;2227998;80;21168;-77
2021/04/02 09:35:45;;;;;;;3.50;3.20;;;;;;;8.20;50.20;98929.61;2227858;80;21260;-78
2021/04/02 09:38:46;;;;;;;3.83;3.53;;;;;;;8.35;50.03;98926.50;2228054;80;21129;-78
2021/04/02 09:41:47;;;;;;;8.27;3.30;;;;;;;8.46;48.90;98918.09;2228631;80;21137;-79
2021/04/02 09:44:48;;;;;;;4.23;3.83;;;;;;;8.51;49.53;98925.56;2229402;80;21166;-80
2021/04/02 09:47:49;;;;;;;6.63;5.00;;;;;;;8.53;49.16;98909.98;2229091;80;21168;-78
2021/04/02 09:50:50;;;;;;;5.03;3.60;;;;;;;8.65;49.53;98916.75;2228022;80;21126;-78
2021/04/02 09:53:51;;;;;;;3.57;3.27;;;;;;;8.87;48.14;98915.06;2226875;80;21296;-78
2021/04/02 09:56:52;;;;;;;3.90;3.60;;;;;;;8.92;47.52;98922.95;2227886;80;21133;-78
2021/04/02 09:59:54;;;;;;;4.03;3.20;;;;;;;8.94;47.11;98916.94;2227612;80;21129;-77
2021/04/02 10:02:55;;;;;;;3.83;3.30;;;;;;;8.93;47.21;98913.88;2228151;80;21256;-78
2021/04/02 10:05:56;;;;;;;4.23;3.83;;;;;;;9.04;47.00;98921.02;2227737;80;21276;-77
2021/04/02 10:09:00;;;;;;;5.77;3.83;;;;;;;9.13;46.86;98914.67;2226655;80;21099;-77
2021/04/02 10:12:01;;;;;;;4.25;3.52;;;;;;;9.25;47.39;98907.09;2225773;80;21189;-78
2021/04/02 10:15:02;;;;;;;4.57;3.60;;;;;;;9.45;47.77;98903.10;2209781;81;21137;-77
2021/04/02 10:18:03;;;;;;;5.83;4.30;;;;;;;9.49;47.95;98909.24;2210229;81;21421;-78
2021/04/02 10:21:05;;;;;;;4.40;3.67;;;;;;;9.52;47.02;98910.17;2210162;81;21435;-77
2021/04/02 10:24:06;;;;;;;4.20;3.90;;;;;;;9.57;46.82;98907.67;2210406;81;21087;-78
2021/04/02 10:27:07;;;;;;;6.23;3.50;;;;;;;9.61;46.18;98904.70;2209793;81;21256;-78
2021/04/02 10:30:08;;;;;;;3.40;3.10;;;;;;;9.76;46.21;98908.86;2209769;81;21364;-78
2021/04/02 10:33:09;;;;;;;6.40;3.50;;;;;;;9.83;45.06;98898.97;2209352;81;21169;-78
2021/04/02 10:36:10;;;;;;;3.20;2.90;;;;;;;9.94;45.88;98896.10;2209428;81;21276;-78
2021/04/02 10:39:11;;;;;;;3.23;3.03;;;;;;;10.14;45.91;98901.19;2209594;81;21143;-78
2021/04/02 10:42:12;;;;;;;3.80;3.40;;;;;;;10.17;45.66;98906.45;2209327;81;21280;-78
2021/04/02 10:45:13;;;;;;;5.37;3.20;;;;;;;10.06;44.02;98900.62;2210262;81;21103;-81
2021/04/02 10:48:14;;;;;;;2.87;2.67;;;;;;;10.06;44.79;98892.80;2211303;81;21233;-78
2021/04/02 10:51:16;;;;;;;3.70;3.00;;;;;;;10.10;43.24;98895.47;2209951;81;21106;-79
2021/04/02 10:54:17;;;;;;;4.43;3.17;;;;;;;10.05;42.68;98893.66;2210453;81;21215;-79
2021/04/02 10:57:18;;;;;;;2.90;2.50;;;;;;;10.12;43.26;98885.06;2210330;81;21158;-78
2021/04/02 11:00:21;;;;;;;2.98;2.70;;;;;;;10.31;42.42;98888.84;2210878;81;21103;-78
2021/04/02 11:03:22;;;;;;;3.12;2.92;;;;;;;10.21;42.76;98883.49;2210501;81;21154;-76
2021/04/02 11:06:23;;;;;;;3.30;3.00;;;;;;;10.07;42.62;98886.30;2210097;81;21142;-80
2021/04/02 11:09:24;;;;;;;3.10;2.80;;;;;;;10.05;42.46;98885.83;2210293;81;21395;-78
2021/04/02 11:12:28;;;;;;;3.10;2.90;;;;;;;10.12;42.72;98886.37;2209786;79;21288;-77
2021/04/02 11:15:29;;;;;;;320.10;22.60;;;;;;;10.16;43.21;98873.81;2209835;81;21561;-78
2021/04/02 11:18:30;;;;;;;4.20;3.00;;;;;;;10.41;43.35;98871.17;2208995;80;21384;-79
2021/04/02 11:21:32;;;;;;;3.00;2.43;;;;;;;10.57;43.16;98869.20;2208979;81;21118;-79
2021/04/02 11:24:33;;;;;;;3.12;2.83;;;;;;;10.47;42.36;98871.25;2209338;81;21138;-79
2021/04/02 11:27:34;;;;;;;3.20;2.87;;;;;;;10.44;42.50;98872.52;2209937;81;21164;-78
2021/04/02 11:30:35;;;;;;;4.13;2.47;;;;;;;10.32;41.24;98867.98;2208800;81;21154;-77
2021/04/02 11:33:36;;;;;;;4.10;2.63;;;;;;;10.30;43.19;98857.95;2208633;81;21170;-78
2021/04/02 11:36:37;;;;;;;3.43;2.93;;;;;;;10.62;42.77;98853.59;2208827;81;21118;-78
2021/04/02 11:39:39;;;;;;;5.58;2.75;;;;;;;10.72;41.71;98855.45;2209002;81;21543;-77
2021/04/02 11:42:40;;;;;;;5.33;2.95;;;;;;;10.66;42.34;98841.91;2209349;81;21118;-78
2021/04/02 11:45:42;;;;;;;4.12;2.85;;;;;;;10.70;41.73;98848.03;2208829;81;21138;-77
2021/04/02 11:48:43;;;;;;;2.60;2.40;;;;;;;10.71;40.92;98843.26;2208824;81;21126;-78
2021/04/02 11:51:44;;;;;;;2.17;1.98;;;;;;;10.74;41.91;98837.64;2208340;81;21245;-77
2021/04/02 11:54:45;;;;;;;4.10;2.90;;;;;;;10.80;40.75;98839.02;2210092;81;21138;-78
2021/04/02 11:57:46;;;;;;;6.30;3.00;;;;;;;10.83;41.88;98831.22;2209275;81;21237;-79
2021/04/02 12:00:47;;;;;;;3.67;3.00;;;;;;;11.00;42.55;98833.13;2209137;81;21548;-78
2021/04/02 12:03:48;;;;;;;4.53;3.30;;;;;;;10.95;41.11;98826.55;2208761;81;21125;-79
2021/04/02 12:06:49;;;;;;;3.40;3.10;;;;;;;10.99;41.22;98824.41;2210091;81;21134;-79
2021/04/02 12:09:50;;;;;;;3.10;2.83;;;;;;;11.13;40.94;98818.01;2209844;81;21858;-79
2021/04/02 12:12:51;;;;;;;4.35;3.37;;;;;;;11.11;39.22;98811.89;2210207;80;21543;-79
2021/04/02 12:15:52;;;;;;;4.35;3.40;;;;;;;11.21;38.30;98815.03;2209694;81;21149;-79
2021/04/02 12:18:53;;;;;;;3.08;2.80;;;;;;;11.08;37.62;98809.25;2210314;81;21115;-80
2021/04/02 12:21:54;;;;;;;3.00;2.75;;;;;;;10.93;38.12;98804.77;2210706;81;21199;-79
2021/04/02 12:24:55;;;;;;;4.15;3.75;;;;;;;10.87;38.03;98798.60;2210845;81;21488;-80
2021/04/02 12:27:56;;;;;;;44.83;29.63;;;;;;;10.86;38.65;98797.73;2210230;81;21260;-79
2021/04/02 12:30:57;;;;;;;3.72;3.33;;;;;;;10.87;37.16;98794.69;2210051;80;21134;-79
2021/04/02 12:33:58;;;;;;;3.40;3.08;;;;;;;10.89;36.99;98787.31;2211198;81;21181;-78
2021/04/02 12:36:59;;;;;;;5.55;3.60;;;;;;;10.97;37.62;98780.42;2210208;81;21145;-80
2021/04/02 12:40:00;;;;;;;6.53;5.35;;;;;;;11.14;37.02;98784.49;2210484;81;21150;-80
2021/04/02 12:43:02;;;;;;;10.53;4.72;;;;;;;11.23;38.21;98771.50;2210198;81;21530;-82
2021/04/02 12:46:03;;;;;;;19.32;12.75;;;;;;;11.32;37.79;98765.08;2210983;81;21276;-80
2021/04/02 12:49:04;;;;;;;56.37;32.17;;;;;;;11.48;38.21;98757.78;2210563;80;21257;-79
2021/04/02 12:52:05;;;;;;;41.65;26.95;;;;;;;11.59;37.77;98764.83;2210149;80;21292;-80
2021/04/02 12:55:06;;;;;;;27.37;20.20;;;;;;;11.62;38.67;98754.39;2210965;80;21149;-80
2021/04/02 12:58:07;;;;;;;9.38;6.30;;;;;;;11.65;38.64;98753.09;2209975;80;21090;-78
2021/04/02 13:01:08;;;;;;;6.00;5.30;;;;;;;11.59;37.86;98754.37;2210431;81;21372;-79
2021/04/02 13:04:09;;;;;;;5.95;5.08;;;;;;;11.51;38.08;98753.45;2210049;81;21145;-79
2021/04/02 13:07:10;;;;;;;57.40;38.25;;;;;;;11.55;37.27;98743.45;2209881;81;21122;-79
2021/04/02 13:10:11;;;;;;;35.90;24.30;;;;;;;11.52;35.87;98749.97;2210209;81;21396;-78
2021/04/02 13:13:12;;;;;;;14.53;10.93;;;;;;;11.45;36.39;98738.16;2210300;80;21572;-78
2021/04/02 13:16:13;;;;;;;10.03;8.18;;;;;;;11.58;37.79;98738.23;2209745;80;21245;-79
2021/04/02 13:19:15;;;;;;;7.22;6.37;;;;;;;11.73;37.84;98734.41;2210240;81;21134;-82
2021/04/02 13:22:16;;;;;;;7.37;5.62;;;;;;;11.72;36.01;98739.19;2209702;81;21253;-79
2021/04/02 13:25:17;;;;;;;6.92;4.85;;;;;;;11.61;35.56;98729.98;2210265;81;21256;-80
2021/04/02 13:28:18;;;;;;;5.80;4.08;;;;;;;11.61;36.85;98727.80;2210375;81;21252;-78
2021/04/02 13:31:19;;;;;;;9.73;4.70;;;;;;;11.63;36.47;98728.25;2210955;81;21149;-80
2021/04/02 13:34:20;;;;;;;4.72;4.10;;;;;;;11.59;36.70;98732.14;2210154;81;21412;-79
2021/04/02 13:37:21;;;;;;;6.47;5.28;;;;;;;11.57;36.22;98716.89;2210164;81;21539;-79
2021/04/02 13:40:23;;;;;;;6.03;5.22;;;;;;;11.55;36.14;98716.00;2209947;81;21260;-79
2021/04/02 13:43:24;;;;;;;5.53;5.03;;;;;;;11.48;36.68;98710.73;2210361;81;21264;-79
2021/04/02 13:46:25;;;;;;;6.12;4.67;;;;;;;11.44;37.17;98719.42;2210569;81;21087;-80
2021/04/02 13:49:26;;;;;;;5.50;4.00;;;;;;;11.38;35.94;98710.23;2211242;81;21158;-79
2021/04/02 13:52:27;;;;;;;4.78;4.28;;;;;;;11.37;34.43;98715.02;2210484;81;21447;-78
2021/04/02 13:55:28;;;;;;;6.75;4.08;;;;;;;11.36;35.07;98711.97;2209655;81;21149;-79
2021/04/02 13:58:30;;;;;;;4.00;3.70;;;;;;;11.29;35.20;98715.84;2210709;81;21134;-78
2021/04/02 14:01:31;;;;;;;5.58;4.42;;;;;;;11.28;35.58;98711.05;2210709;81;21404;-79
2021/04/02 14:04:32;;;;;;;4.65;4.25;;;;;;;11.28;35.93;98712.35;2210694;81;21251;-79
2021/04/02 14:07:33;;;;;;;6.28;4.65;;;;;;;11.28;36.12;98711.48;2210966;81;21142;-77
2021/04/02 14:10:34;;;;;;;5.93;3.90;;;;;;;11.34;35.63;98707.16;2210507;81;21265;-78
2021/04/02 14:13:35;;;;;;;3.92;3.60;;;;;;;11.33;36.65;98700.63;2211128;80;21275;-78
2021/04/02 14:16:36;;;;;;;4.17;3.77;;;;;;;11.36;36.49;98695.41;2220359;80;21704;-79
2021/04/02 14:19:37;;;;;;;5.80;4.42;;;;;;;11.39;34.69;98691.52;2220129;80;21848;-78
2021/04/02 14:22:38;;;;;;;7.40;5.55;;;;;;;11.31;35.94;98698.43;2220430;80;21268;-78
2021/04/02 14:25:42;;;;;;;8.53;5.65;;;;;;;11.39;37.05;98687.16;2220508;80;21248;-78
2021/04/02 14:28:43;;;;;;;6.85;4.30;;;;;;;11.53;36.25;98690.28;2220505;80;21268;-79
2021/04/02 14:31:44;;;;;;;4.60;4.20;;;;;;;11.55;36.09;98679.41;2220177;80;21172;-79
2021/04/02 14:34:45;;;;;;;4.58;4.17;;;;;;;11.55;36.01;98674.17;2220373;80;21284;-79
2021/04/02 14:37:46;;;;;;;6.30;3.70;;;;;;;11.59;35.98;98671.59;2220867;80;21150;-79
2021/04/02 14:40:48;;;;;;;4.12;3.83;;;;;;;11.61;35.35;98672.91;2220328;80;21487;-79